METAR Data
IDs: Format: Raw Decoded Include TAF

Data at: 0858 UTC 26 Jan 2020

K57C 260835Z AUTO 28010G15KT 10SM OVC009 00/00 A2987 RMK AO2 T00001002
K57C 260815Z AUTO 28010KT 10SM OVC009 00/00 A2987 RMK AO2 T00001002
K57C 260755Z AUTO 28009KT 10SM OVC009 00/00 A2987 RMK AO2 T00011001
K57C 260735Z AUTO 28010KT 10SM OVC009 00/00 A2987 RMK AO2 T00010000
K57C 260715Z AUTO 27008KT 10SM OVC009 00/00 A2987 RMK AO2 T00010000
K57C 260655Z AUTO 27009KT 10SM OVC009 00/00 A2986 RMK AO2 T00010000
K57C 260635Z AUTO 27008KT 7SM OVC006 00/00 A2986 RMK AO2 T00000000
K57C 260615Z AUTO 27007KT 4SM BR OVC006 00/00 A2986 RMK AO2 T00000000
K57C 260555Z AUTO 27006KT 7SM OVC008 00/00 A2987 RMK AO2 T00020000 10003 20001 400061002
K57C 260535Z AUTO 27008KT 10SM OVC008 00/00 A2987 RMK AO2 T00020000
K57C 260515Z AUTO 27008KT 10SM OVC008 00/00 A2986 RMK AO2 T00030001
K57C 260455Z AUTO 28010KT 10SM OVC008 00/00 A2986 RMK AO2 T00020000
K57C 260435Z AUTO 28007KT 10SM OVC006 00/00 A2986 RMK AO2 T00020001
K57C 260415Z AUTO 27008KT 10SM OVC006 00/00 A2986 RMK AO2 T00010001
K57C 260355Z AUTO 27008KT 10SM OVC008 00/00 A2986 RMK AO2 T00020001
K57C 260335Z AUTO 28008KT 10SM OVC008 00/00 A2985 RMK AO2 T00020001
K57C 260315Z AUTO 28008KT 10SM OVC008 00/00 A2985 RMK AO2 T00020001
K57C 260255Z AUTO 28008KT 10SM BKN008 OVC012 00/00 A2985 RMK AO2 T00010000
K57C 260235Z AUTO 28008KT 10SM OVC008 00/00 A2984 RMK AO2 T00020002
K57C 260215Z AUTO 28009KT 5SM -SN OVC008 00/00 A2985 RMK AO2 T00010001
K57C 260155Z AUTO 28009KT 7SM OVC010 00/00 A2985 RMK AO2 T00030000
K57C 260135Z AUTO 28008KT 10SM OVC010 00/00 A2985 RMK AO2 T00030000
K57C 260115Z AUTO 28008KT 10SM OVC012 00/00 A2984 RMK AO2 T00030000
K57C 260055Z AUTO 29007KT 10SM SCT009 OVC014 00/00 A2984 RMK AO2 T00020000
K57C 260035Z AUTO 27008KT 10SM BKN010 OVC014 00/00 A2983 RMK AO2 T00020000
K57C 260015Z AUTO 29004KT 10SM OVC012 00/00 A2983 RMK AO2 T00020000
K57C 252355Z AUTO 28006KT 10SM OVC014 00/00 A2983 RMK AO2 T00030000 10006 20000
K57C 252335Z AUTO 28006KT 10SM OVC014 00/00 A2983 RMK AO2 T00020000
K57C 252315Z AUTO 29007KT 10SM OVC014 00/00 A2982 RMK AO2 T00020000
K57C 252255Z AUTO 29007KT 10SM OVC012 00/00 A2982 RMK AO2 T00030000
K57C 252235Z AUTO 28005KT 10SM BKN010 OVC018 00/00 A2981 RMK AO2 T00030000
K57C 252215Z AUTO 29007KT 10SM SCT008 OVC021 00/00 A2981 RMK AO2 T00020000
K57C 252155Z AUTO 30008KT 7SM -SN SCT004 BKN012 OVC019 00/00 A2981 RMK AO2 T00010000
K57C 252135Z AUTO 30007KT 10SM OVC009 01/00 A2980 RMK AO2 T00050003
K57C 252115Z AUTO 28007KT 7SM OVC009 01/00 A2979 RMK AO2 T00050003
K57C 252055Z AUTO 28007KT 5SM BR BKN009 OVC019 01/00 A2979 RMK AO2 T00050003
K57C 252035Z AUTO 28007KT 7SM BKN009 OVC026 01/00 A2979 RMK AO2 T00060003
K57C 252015Z AUTO 28009KT 5SM BR BKN009 BKN016 OVC026 01/00 A2978 RMK AO2 T00050003
K57C 251955Z AUTO 28007KT 7SM OVC009 01/00 A2978 RMK AO2 T00050003
K57C 251935Z AUTO 29006KT 10SM OVC009 01/00 A2978 RMK AO2 T00060003
K57C 251915Z AUTO 28007KT 5SM -SN OVC006 01/00 A2978 RMK AO2 T00050004
K57C 251855Z AUTO 28008KT 5SM -SN OVC006 01/00 A2978 RMK AO2 T00050003
K57C 251835Z AUTO 28008KT 4SM -SN OVC006 00/00 A2978 RMK AO2 T00040003
K57C 251815Z AUTO 28010KT 5SM -SN BKN006 OVC010 00/00 A2978 RMK AO2 T00030003
K57C 251755Z AUTO 28008KT 1 1/2SM -SN OVC006 00/00 A2978 RMK AO2 T00020002 10003 21002
K57C 251735Z AUTO 28007KT 1 3/4SM -SN OVC006 00/00 A2979 RMK AO2 T00030002
K57C 251715Z AUTO 28008KT 3SM -SN OVC006 00/00 A2979 RMK AO2 T00030002
K57C 251655Z AUTO 28008KT 5SM -SN OVC006 00/00 A2979 RMK AO2 T00030002
K57C 251635Z AUTO 28008KT 3SM -SN OVC006 00/00 A2979 RMK AO2 T00010001
K57C 251615Z AUTO 28008KT 2SM -SN OVC006 00/00 A2979 RMK AO2 T00020001
K57C 251555Z AUTO 28006KT 3SM -SN OVC006 00/00 A2979 RMK AO2 T00000000
K57C 251535Z AUTO 28006KT 1 1/4SM -SN OVC004 00/00 A2978 RMK AO2 T00000000
K57C 251515Z AUTO 28006KT 1 3/4SM -SN OVC004 00/00 A2978 RMK AO2 T00000000
K57C 251455Z AUTO 28003KT 1 1/2SM -SN OVC004 00/00 A2978 RMK AO2 T00000000
K57C 251435Z AUTO 28004KT 1 1/4SM -SN OVC004 00/00 A2978 RMK AO2 T00000000
K57C 251415Z AUTO 29004KT 1 3/4SM -SN OVC004 00/00 A2978 RMK AO2 T00000000
K57C 251355Z AUTO 29004KT 1 3/4SM -SN OVC004 00/00 A2978 RMK AO2 T10011001
K57C 251335Z AUTO 29004KT 1 3/4SM -SN OVC004 00/00 A2977 RMK AO2 T10011001
K57C 251315Z AUTO 30004KT 2 1/2SM -SN OVC004 00/00 A2977 RMK AO2 T10011001
K57C 251255Z AUTO 29004KT 2 1/2SM -SN OVC004 00/00 A2976 RMK AO2 T10021002
K57C 251235Z AUTO 29004KT 1 3/4SM -SN OVC004 00/00 A2976 RMK AO2 T10021002
K57C 251215Z AUTO 28004KT 1 1/2SM -SN OVC004 00/00 A2976 RMK AO2 T10021002
K57C 251155Z AUTO 28004KT 3SM -SN OVC004 00/00 A2975 RMK AO2 7//// T10011001 11001 21002
K57C 251135Z AUTO 28004KT 7SM OVC004 00/00 A2974 RMK AO2 T10011001
K57C 251115Z AUTO 28004KT 7SM OVC004 00/00 A2974 RMK AO2 T10011001
K57C 251055Z AUTO 29004KT 7SM OVC004 00/00 A2974 RMK AO2 T10011001
K57C 251035Z AUTO 29004KT 7SM OVC004 00/00 A2974 RMK AO2 T10021002
K57C 251015Z AUTO 29003KT 5SM BR OVC004 00/00 A2974 RMK AO2 T10021002
K57C 250955Z AUTO 29003KT 3SM -SN OVC004 00/00 A2974 RMK AO2 T10021002
K57C 250935Z AUTO 29004KT 5SM -SN OVC004 00/00 A2974 RMK AO2 T10021002
K57C 250915Z AUTO 29003KT 5SM -SN OVC004 00/00 A2974 RMK AO2 T10021002
K57C 250855Z AUTO 28003KT 4SM -SN OVC004 00/00 A2974 RMK AO2 T10021002
K57C 250835Z AUTO 00000KT 4SM -SN OVC004 00/00 A2975 RMK AO2 T10011001
K57C 250815Z AUTO 29003KT 7SM OVC004 00/00 A2975 RMK AO2 T10011001
K57C 250755Z AUTO 00000KT 5SM BR OVC004 00/00 A2975 RMK AO2 T10011001
K57C 250735Z AUTO 00000KT 5SM -SN OVC004 00/00 A2974 RMK AO2 T10021002
K57C 250715Z AUTO 00000KT 4SM -SN OVC004 00/00 A2975 RMK AO2 T10021002
K57C 250655Z AUTO 00000KT 3SM -SN OVC002 00/00 A2975 RMK AO2 T10021002
K57C 250635Z AUTO 00000KT 2 1/2SM -SN OVC002 00/00 A2974 RMK AO2 T10021002
K57C 250615Z AUTO 00000KT 2 1/2SM -SN OVC002 00/00 A2975 RMK AO2 T10021002
K57C 250555Z AUTO 00000KT 2SM -SN OVC002 00/00 A2975 RMK AO2 P0002 60011 T10021002 10000 21002
K57C 250535Z AUTO 00000KT 2SM -SN OVC002 00/00 A2976 RMK AO2 P0002 T10021002
K57C 250515Z AUTO 00000KT 1 3/4SM -SN OVC002 00/00 A2976 RMK AO2 P0001 T10011001
K57C 250455Z AUTO 00000KT 1 3/4SM -SN OVC002 00/00 A2976 RMK AO2 P0002 T10011001
K57C 250435Z AUTO 00000KT 1 3/4SM -SN OVC002 00/00 A2976 RMK AO2 P0001 T10011001
K57C 250415Z AUTO 00000KT 2SM -SN OVC002 00/00 A2976 RMK AO2 T10011001
K57C 250355Z AUTO 00000KT 2 1/2SM -SN OVC002 00/00 A2976 RMK AO2 P0001 T10011001
K57C 250335Z AUTO 00000KT 1 3/4SM -SN OVC002 00/00 A2977 RMK AO2 P0001 T10011001
K57C 250315Z AUTO 00000KT 1 1/2SM -SN OVC002 00/00 A2978 RMK AO2 T10011001
K57C 250255Z AUTO 00000KT 1 1/4SM -SN BKN002 OVC010 00/00 A2978 RMK AO2 P0002 60006 T10011001
K57C 250235Z AUTO 00000KT 1 1/2SM -SN OVC002 00/00 A2978 RMK AO2 P0001 T10011001
K57C 250215Z AUTO 00000KT 1 1/4SM -SN OVC002 00/00 A2979 RMK AO2 T10011001
K57C 250155Z AUTO 00000KT 1 1/2SM -SN OVC002 00/00 A2978 RMK AO2 P0002 T00000000
K57C 250135Z AUTO 00000KT 2 1/2SM -SN BKN002 BKN011 OVC029 00/00 A2979 RMK AO2 T00000000
K57C 250115Z AUTO 00000KT 3SM -SN OVC004 00/00 A2979 RMK AO2 T00000000
K57C 250055Z AUTO 00000KT 2 1/2SM -SN OVC004 00/00 A2980 RMK AO2 P0002 T00000000
K57C 250035Z AUTO 00000KT 2SM -SN OVC006 00/00 A2980 RMK AO2 P0002 T10011001
K57C 250015Z AUTO 00000KT 1 1/2SM -SN BKN008 OVC012 00/00 A2979 RMK AO2 P0002 T10011001
K57C 242355Z AUTO 00000KT 1 1/4SM -SN OVC008 00/00 A2979 RMK AO2 P0006 60007 T10011001 10022 21001
K57C 242335Z AUTO 00000KT 1 1/4SM -SN OVC004 00/00 A2980 RMK AO2 P0003 T00000000
K57C 242315Z AUTO 00000KT 5SM -SN OVC004 01/01 A2980 RMK AO2 P0001 T00060006
K57C 242255Z AUTO 05003KT 5SM -RA OVC004 01/01 A2979 RMK AO2 P0001 T00100010
K57C 242235Z AUTO 04005KT 3SM -RA OVC002 01/01 A2978 RMK AO2 T00130013
K57C 242215Z AUTO 04004KT 1/2SM -RA OVC002 02/02 A2979 RMK AO2 T00150015
K57C 242155Z AUTO 05003KT 1/4SM FG OVC002 02/02 A2979 RMK AO2 T00160016
K57C 242135Z AUTO 05003KT 1/4SM FG OVC002 02/02 A2979 RMK AO2 T00170017
K57C 242115Z AUTO 05004KT 1/4SM FG OVC002 02/02 A2979 RMK AO2 T00180018